Time;durP1;ratioP1;P1;durP2;ratioP2;P2;SDS_P1;SDS_P2;PMS_P1;PMS_P2;Temp;Humidity;BMP_temperature;BMP_pressure;BME280_temperature;BME280_humidity;BME280_pressure;Samples;Min_cycle;Max_cycle;Signal;HPM_P1;HPM_P2
2021/10/23 00:01:05;;;;;;;14.52;2.30;;;5.20;99.90;;;;;;4873985;29;20042;-87
2021/10/23 00:03:31;;;;;;;19.92;2.72;;;5.20;99.90;;;;;;4898269;29;20442;-88
2021/10/23 00:05:57;;;;;;;12.50;2.03;;;5.20;99.90;;;;;;4884609;29;20054;-86
2021/10/23 00:08:23;;;;;;;14.75;2.22;;;5.20;99.90;;;;;;4869503;29;20185;-86
2021/10/23 00:10:49;;;;;;;12.23;2.30;;;5.20;99.90;;;;;;4889946;29;20456;-86
2021/10/23 00:13:14;;;;;;;14.23;1.92;;;5.20;99.90;;;;;;4884954;29;20047;-86
2021/10/23 00:15:40;;;;;;;12.15;2.05;;;5.20;99.90;;;;;;4866577;29;20039;-87
2021/10/23 00:18:06;;;;;;;10.40;2.15;;;5.20;99.90;;;;;;4875601;29;20494;-87
2021/10/23 00:20:32;;;;;;;12.35;2.10;;;5.20;99.90;;;;;;4870534;29;20075;-86
2021/10/23 00:22:58;;;;;;;11.70;2.45;;;5.20;99.90;;;;;;4902161;29;20071;-87
2021/10/23 00:25:23;;;;;;;17.67;2.38;;;5.20;99.90;;;;;;4876192;29;20081;-87
2021/10/23 00:27:49;;;;;;;16.48;2.13;;;5.20;99.90;;;;;;4879825;29;20051;-86
2021/10/23 00:30:16;;;;;;;17.52;2.30;;;5.20;99.90;;;;;;4862340;29;20047;-86
2021/10/23 00:32:42;;;;;;;14.50;2.35;;;5.20;99.90;;;;;;4890251;29;20048;-87
2021/10/23 00:35:08;;;;;;;14.23;2.13;;;5.20;99.90;;;;;;4873190;29;20039;-87
2021/10/23 00:37:34;;;;;;;12.57;2.13;;;5.20;99.90;;;;;;4862469;29;20231;-87
2021/10/23 00:40:00;;;;;;;12.13;2.05;;;5.20;99.90;;;;;;4868657;29;20080;-87
2021/10/23 00:42:26;;;;;;;12.38;2.50;;;5.20;99.90;;;;;;4872130;29;20095;-87
2021/10/23 00:44:51;;;;;;;9.90;1.77;;;5.20;99.90;;;;;;4871158;29;20055;-86
2021/10/23 00:47:20;;;;;;;17.67;2.17;;;5.20;99.90;;;;;;4853942;29;20039;-87
2021/10/23 00:49:51;;;;;;;20.23;2.55;;;5.20;99.90;;;;;;4898098;29;20095;-86
2021/10/23 00:52:18;;;;;;;18.02;2.20;;;5.20;99.90;;;;;;4900125;29;20538;-87
2021/10/23 00:54:43;;;;;;;17.45;2.42;;;5.20;99.90;;;;;;4865236;29;20031;-87
2021/10/23 00:57:09;;;;;;;15.23;1.77;;;5.20;99.90;;;;;;4880920;29;20410;-86
2021/10/23 00:59:35;;;;;;;16.00;2.40;;;5.10;99.90;;;;;;4868322;29;20103;-86
2021/10/23 01:02:02;;;;;;;17.40;2.20;;;5.20;99.90;;;;;;4883877;29;20451;-86
2021/10/23 01:04:28;;;;;;;14.68;1.85;;;5.20;99.90;;;;;;4866144;29;20048;-86
2021/10/23 01:06:54;;;;;;;24.15;2.33;;;5.20;99.90;;;;;;4883901;29;20296;-86
2021/10/23 01:09:21;;;;;;;14.93;2.13;;;5.20;99.90;;;;;;4900909;29;20047;-86
2021/10/23 01:11:49;;;;;;;15.88;2.10;;;5.20;99.90;;;;;;4872129;29;20063;-87
2021/10/23 01:14:23;;;;;;;12.00;1.77;;;5.20;99.90;;;;;;4893856;29;20036;-87
2021/10/23 01:16:51;;;;;;;13.40;1.98;;;5.20;99.90;;;;;;4889994;29;20558;-86
2021/10/23 01:19:17;;;;;;;14.93;2.33;;;5.20;99.90;;;;;;4894605;29;20158;-86
2021/10/23 01:21:46;;;;;;;19.10;2.55;;;5.30;99.90;;;;;;4861670;29;20043;-87
2021/10/23 01:24:12;;;;;;;14.18;1.95;;;5.30;99.90;;;;;;4894818;29;20059;-86
2021/10/23 01:26:38;;;;;;;10.77;2.08;;;5.40;99.90;;;;;;4868017;29;20043;-85
2021/10/23 01:29:07;;;;;;;13.50;1.52;;;5.40;99.90;;;;;;4872735;29;20292;-87
2021/10/23 01:31:33;;;;;;;11.90;1.98;;;5.50;99.90;;;;;;4908138;29;20051;-85
2021/10/23 01:34:08;;;;;;;22.95;2.40;;;5.50;99.90;;;;;;4875272;29;20342;-87
2021/10/23 01:36:34;;;;;;;19.17;1.88;;;5.60;99.90;;;;;;4886965;29;20040;-86
2021/10/23 01:39:01;;;;;;;20.17;2.25;;;5.60;99.90;;;;;;4859889;29;20048;-87
2021/10/23 01:41:26;;;;;;;15.00;1.73;;;5.60;99.90;;;;;;4882739;29;20036;-87
2021/10/23 01:43:52;;;;;;;15.18;2.33;;;5.70;99.90;;;;;;4868835;29;20050;-87
2021/10/23 01:46:18;;;;;;;21.25;2.00;;;5.80;99.90;;;;;;4904144;29;20264;-85
2021/10/23 01:48:43;;;;;;;10.93;1.70;;;5.80;99.90;;;;;;4893448;29;20399;-86
2021/10/23 01:51:13;;;;;;;10.98;1.73;;;5.90;99.90;;;;;;4874852;29;20127;-86
2021/10/23 01:53:39;;;;;;;19.58;2.65;;;6.00;99.90;;;;;;4876488;29;20063;-85
2021/10/23 01:56:04;;;;;;;14.68;1.80;;;6.10;99.90;;;;;;4865761;29;20086;-86
2021/10/23 01:58:31;;;;;;;15.88;1.77;;;6.10;99.90;;;;;;4895293;29;20095;-85
2021/10/23 02:00:57;;;;;;;17.90;2.03;;;6.20;99.90;;;;;;4884380;29;20040;-86
2021/10/23 02:03:22;;;;;;;20.30;1.80;;;6.20;99.90;;;;;;4896511;29;20071;-86
2021/10/23 02:05:48;;;;;;;21.55;1.70;;;6.20;99.90;;;;;;4894140;29;20082;-84
2021/10/23 02:08:15;;;;;;;12.38;1.85;;;6.30;99.90;;;;;;4883725;29;20389;-87
2021/10/23 02:10:41;;;;;;;11.80;1.80;;;6.30;99.90;;;;;;4890122;29;20126;-87
2021/10/23 02:13:06;;;;;;;11.70;2.05;;;6.30;99.90;;;;;;4873576;29;20161;-87
2021/10/23 02:15:32;;;;;;;15.38;2.83;;;6.30;99.90;;;;;;4884959;29;20067;-86
2021/10/23 02:17:58;;;;;;;12.10;1.80;;;6.30;99.90;;;;;;4871584;29;20035;-87
2021/10/23 02:20:25;;;;;;;9.68;1.80;;;6.30;99.90;;;;;;4887391;29;20044;-85
2021/10/23 02:22:51;;;;;;;13.52;1.70;;;6.30;99.90;;;;;;4883130;29;20139;-85
2021/10/23 02:25:17;;;;;;;13.68;1.52;;;6.30;99.90;;;;;;4882203;29;20123;-86
2021/10/23 02:27:43;;;;;;;14.00;1.98;;;6.30;99.90;;;;;;4877807;29;20067;-86
2021/10/23 02:30:09;;;;;;;14.48;2.33;;;6.30;99.90;;;;;;4871336;29;20080;-86
2021/10/23 02:32:36;;;;;;;15.13;2.10;;;6.30;99.90;;;;;;4858027;29;20043;-86
2021/10/23 02:35:02;;;;;;;18.42;1.83;;;6.30;99.90;;;;;;4872998;29;20820;-86
2021/10/23 02:37:28;;;;;;;18.73;2.95;;;6.30;99.90;;;;;;4883515;29;20051;-86
2021/10/23 02:39:54;;;;;;;15.52;1.75;;;6.30;99.90;;;;;;4883689;29;20325;-87
2021/10/23 02:42:20;;;;;;;8.30;1.70;;;6.30;99.90;;;;;;4854868;29;20052;-87
2021/10/23 02:44:45;;;;;;;12.43;1.88;;;6.30;99.90;;;;;;4890934;29;20067;-87
2021/10/23 02:47:11;;;;;;;10.00;1.80;;;6.30;99.90;;;;;;4879155;29;20174;-86
2021/10/23 02:49:37;;;;;;;12.95;2.15;;;6.30;99.90;;;;;;4895916;29;20111;-86
2021/10/23 02:52:04;;;;;;;14.07;2.45;;;6.30;99.90;;;;;;4889587;29;20039;-86
2021/10/23 02:54:30;;;;;;;12.98;1.70;;;6.30;99.90;;;;;;4897730;29;20503;-86
2021/10/23 02:56:57;;;;;;;15.23;1.92;;;6.30;99.90;;;;;;4883297;29;20048;-86
2021/10/23 02:59:23;;;;;;;12.55;1.55;;;6.30;99.90;;;;;;4889495;29;20563;-86
2021/10/23 03:01:49;;;;;;;7.78;1.70;;;6.40;99.90;;;;;;4891763;29;20040;-85
2021/10/23 03:04:15;;;;;;;12.63;1.70;;;6.30;99.90;;;;;;4877764;29;20051;-85
2021/10/23 03:06:44;;;;;;;13.38;1.67;;;6.30;99.90;;;;;;4876399;29;20047;-86
2021/10/23 03:09:15;;;;;;;14.55;1.92;;;6.30;99.90;;;;;;4889336;29;20444;-84
2021/10/23 03:11:41;;;;;;;14.73;2.22;;;6.40;99.90;;;;;;4891309;29;20503;-85
2021/10/23 03:14:08;;;;;;;12.02;1.58;;;6.40;99.90;;;;;;4891062;29;20043;-84
2021/10/23 03:16:34;;;;;;;12.98;1.85;;;6.40;99.90;;;;;;4877917;29;21906;-85
2021/10/23 03:19:00;;;;;;;13.93;1.88;;;6.40;99.90;;;;;;4895454;29;20046;-86
2021/10/23 03:21:26;;;;;;;9.10;1.55;;;6.30;99.90;;;;;;4901821;29;20466;-85
2021/10/23 03:23:51;;;;;;;12.50;1.55;;;6.30;99.90;;;;;;4853288;29;20055;-85
2021/10/23 03:26:17;;;;;;;12.27;1.83;;;6.30;99.90;;;;;;4891452;29;20071;-86
2021/10/23 03:28:43;;;;;;;14.75;1.80;;;6.20;99.90;;;;;;4873569;29;20115;-86
2021/10/23 03:31:09;;;;;;;20.33;1.98;;;6.20;99.90;;;;;;4863043;29;20039;-86
2021/10/23 03:33:35;;;;;;;10.55;1.55;;;6.20;99.90;;;;;;4887114;29;20047;-86
2021/10/23 03:36:00;;;;;;;12.55;1.60;;;6.20;99.90;;;;;;4886979;29;20043;-84
2021/10/23 03:38:26;;;;;;;11.30;1.50;;;6.20;99.90;;;;;;4886288;29;20044;-85
2021/10/23 03:40:52;;;;;;;18.08;1.48;;;6.10;99.90;;;;;;4882406;29;20073;-87
2021/10/23 03:43:18;;;;;;;14.57;2.00;;;6.10;99.90;;;;;;4885031;29;20088;-85
2021/10/23 03:45:44;;;;;;;8.60;1.35;;;6.10;99.90;;;;;;4863991;29;20071;-86
2021/10/23 03:48:10;;;;;;;11.15;1.52;;;6.10;99.90;;;;;;4894872;29;20046;-86
2021/10/23 03:50:35;;;;;;;10.65;1.80;;;6.00;99.90;;;;;;4883721;29;20044;-86
2021/10/23 03:53:01;;;;;;;12.75;1.40;;;6.00;99.90;;;;;;4851979;29;20506;-86
2021/10/23 03:55:27;;;;;;;11.85;1.48;;;6.00;99.90;;;;;;4870825;29;20068;-87
2021/10/23 03:57:53;;;;;;;10.75;1.40;;;6.00;99.90;;;;;;4860741;29;20051;-87
2021/10/23 04:00:18;;;;;;;11.80;1.50;;;6.00;99.90;;;;;;4876921;29;20385;-87
2021/10/23 04:02:47;;;;;;;9.82;1.20;;;6.00;99.90;;;;;;4875698;29;20047;-87
2021/10/23 04:05:13;;;;;;;18.83;2.47;;;6.00;99.90;;;;;;4878849;29;20036;-87
2021/10/23 04:07:39;;;;;;;22.25;1.67;;;6.00;99.90;;;;;;4868489;29;20031;-87
2021/10/23 04:10:06;;;;;;;8.73;1.85;;;6.00;99.90;;;;;;4883858;29;20055;-87
2021/10/23 04:12:32;;;;;;;9.27;1.85;;;6.00;99.90;;;;;;4853231;29;20123;-86
2021/10/23 04:14:59;;;;;;;12.43;1.77;;;6.00;99.90;;;;;;4881716;29;20550;-87
2021/10/23 04:17:26;;;;;;;15.35;1.70;;;6.00;99.90;;;;;;4884681;29;20075;-87
2021/10/23 04:19:51;;;;;;;13.75;1.50;;;6.10;99.90;;;;;;4884726;29;20090;-86
2021/10/23 04:22:17;;;;;;;11.77;1.90;;;6.10;99.90;;;;;;4871460;29;20498;-87
2021/10/23 04:24:43;;;;;;;9.18;1.42;;;6.10;99.90;;;;;;4855605;29;20067;-87
2021/10/23 04:27:09;;;;;;;13.70;1.83;;;6.10;99.90;;;;;;4874433;29;20419;-86
2021/10/23 04:29:35;;;;;;;11.02;1.77;;;6.10;99.90;;;;;;4872940;29;20036;-87
2021/10/23 04:32:01;;;;;;;10.63;1.70;;;6.10;99.90;;;;;;4884517;29;20495;-87
2021/10/23 04:34:27;;;;;;;11.13;1.67;;;6.10;99.90;;;;;;4879385;29;20476;-87
2021/10/23 04:36:53;;;;;;;10.27;1.70;;;6.10;99.90;;;;;;4890624;29;20143;-87
2021/10/23 04:39:19;;;;;;;9.80;1.77;;;6.10;99.90;;;;;;4881573;29;20119;-86
2021/10/23 04:41:45;;;;;;;16.48;2.20;;;6.10;99.90;;;;;;4871476;29;20051;-86
2021/10/23 04:44:10;;;;;;;11.20;1.60;;;6.10;99.90;;;;;;4870369;29;20042;-86
2021/10/23 04:46:36;;;;;;;13.43;1.77;;;6.10;99.90;;;;;;4880164;29;20099;-86
2021/10/23 04:49:02;;;;;;;13.60;1.88;;;6.00;99.90;;;;;;4856484;29;20068;-87
2021/10/23 04:51:28;;;;;;;12.88;1.63;;;6.00;99.90;;;;;;4873978;29;20510;-86
2021/10/23 04:53:53;;;;;;;12.65;1.92;;;6.00;99.90;;;;;;4909756;29;20127;-86
2021/10/23 04:56:20;;;;;;;17.95;2.10;;;6.00;99.90;;;;;;4878103;29;20035;-86
2021/10/23 04:58:46;;;;;;;11.50;1.70;;;6.00;99.90;;;;;;4893913;29;20043;-86
2021/10/23 05:01:12;;;;;;;14.10;2.05;;;6.00;99.90;;;;;;4897180;29;20131;-86
2021/10/23 05:03:37;;;;;;;13.93;1.83;;;6.00;99.90;;;;;;4894583;29;20040;-85
2021/10/23 05:06:03;;;;;;;10.75;1.42;;;6.00;99.90;;;;;;4893011;29;20047;-86
2021/10/23 05:08:29;;;;;;;13.55;1.52;;;6.00;99.90;;;;;;4908363;29;20067;-85
2021/10/23 05:10:55;;;;;;;13.63;2.97;;;6.00;99.90;;;;;;4889334;29;20086;-86
2021/10/23 05:13:21;;;;;;;14.93;2.03;;;5.90;99.90;;;;;;4903192;29;20119;-84
2021/10/23 05:15:47;;;;;;;10.50;2.00;;;5.90;99.90;;;;;;4892648;29;20083;-85
2021/10/23 05:18:12;;;;;;;14.13;1.45;;;5.90;99.90;;;;;;4900118;29;20322;-85
2021/10/23 05:20:38;;;;;;;11.50;1.42;;;5.90;99.90;;;;;;4907724;29;20047;-86
2021/10/23 05:23:04;;;;;;;12.70;2.13;;;5.80;99.90;;;;;;4884910;29;20052;-85
2021/10/23 05:25:30;;;;;;;13.00;2.20;;;5.80;99.90;;;;;;4885464;29;20490;-86
2021/10/23 05:27:55;;;;;;;12.45;1.90;;;5.80;99.90;;;;;;4873640;29;20051;-85
2021/10/23 05:30:21;;;;;;;16.77;2.15;;;5.70;99.90;;;;;;4885493;29;20044;-86
2021/10/23 05:32:47;;;;;;;9.95;2.10;;;5.70;99.90;;;;;;4857386;29;20123;-86
2021/10/23 05:35:13;;;;;;;17.20;2.13;;;5.70;99.90;;;;;;4874736;29;20073;-86
2021/10/23 05:37:39;;;;;;;20.13;2.45;;;5.70;99.90;;;;;;4892736;29;20040;-86
2021/10/23 05:40:05;;;;;;;11.27;2.15;;;5.70;99.90;;;;;;4884453;29;20407;-86
2021/10/23 05:42:31;;;;;;;19.83;2.65;;;5.70;99.90;;;;;;4870567;29;20131;-86
2021/10/23 05:44:57;;;;;;;14.10;2.47;;;5.60;99.90;;;;;;4909273;29;20175;-85
2021/10/23 05:47:22;;;;;;;16.10;1.90;;;5.60;99.90;;;;;;4903584;29;20036;-86
2021/10/23 05:49:48;;;;;;;16.60;2.42;;;5.70;99.90;;;;;;4893541;29;20060;-86
2021/10/23 05:52:14;;;;;;;16.67;2.38;;;5.70;99.90;;;;;;4903633;29;20055;-86
2021/10/23 05:54:40;;;;;;;14.80;2.17;;;5.70;99.90;;;;;;4862514;29;20035;-85
2021/10/23 05:57:10;;;;;;;18.85;2.40;;;5.70;99.90;;;;;;4891369;29;20032;-86
2021/10/23 05:59:40;;;;;;;14.23;2.22;;;5.80;99.90;;;;;;4901127;29;20044;-86
2021/10/23 06:02:23;;;;;;;13.48;2.13;;;5.80;99.90;;;;;;4895213;29;20063;-86
2021/10/23 06:04:53;;;;;;;14.52;1.90;;;5.80;99.90;;;;;;4896778;29;20040;-86
2021/10/23 06:07:20;;;;;;;15.60;2.40;;;5.90;99.90;;;;;;4884981;29;20040;-85
2021/10/23 06:09:46;;;;;;;12.43;1.83;;;5.90;99.90;;;;;;4902712;29;20062;-85
2021/10/23 06:12:12;;;;;;;10.75;2.10;;;5.90;99.90;;;;;;4874255;29;20485;-86
2021/10/23 06:14:38;;;;;;;16.55;2.60;;;5.90;99.90;;;;;;4869656;29;20093;-86
2021/10/23 06:17:05;;;;;;;13.23;2.50;;;6.00;99.90;;;;;;4909786;29;20050;-87
2021/10/23 06:19:32;;;;;;;18.88;2.50;;;6.00;99.90;;;;;;4897085;29;20391;-85
2021/10/23 06:21:58;;;;;;;17.77;2.47;;;6.00;99.90;;;;;;4874539;29;20048;-86
2021/10/23 06:24:24;;;;;;;14.70;2.35;;;6.00;99.90;;;;;;4896782;29;20051;-85
2021/10/23 06:26:50;;;;;;;20.75;2.90;;;6.00;99.90;;;;;;4877407;29;20040;-86
2021/10/23 06:29:16;;;;;;;19.98;3.50;;;6.00;99.90;;;;;;4878742;29;20046;-86
2021/10/23 06:31:42;;;;;;;17.73;2.30;;;6.00;99.90;;;;;;4882037;29;20040;-86
2021/10/23 06:34:07;;;;;;;17.55;2.60;;;6.00;99.90;;;;;;4893845;29;20040;-86
2021/10/23 06:36:33;;;;;;;10.90;2.63;;;6.10;99.90;;;;;;4882841;29;20067;-85
2021/10/23 06:38:59;;;;;;;12.13;2.60;;;6.10;99.90;;;;;;4901426;29;20058;-86
2021/10/23 06:41:25;;;;;;;17.27;3.00;;;6.10;99.90;;;;;;4879163;29;20039;-85
2021/10/23 06:43:51;;;;;;;22.00;4.03;;;6.10;99.90;;;;;;4901233;29;20114;-86
2021/10/23 06:46:16;;;;;;;25.38;3.22;;;6.20;99.90;;;;;;4877067;29;20040;-86
2021/10/23 06:48:42;;;;;;;21.77;3.40;;;6.20;99.90;;;;;;4902576;29;20036;-87
2021/10/23 06:51:08;;;;;;;15.52;2.55;;;6.20;99.90;;;;;;4869388;29;20036;-86
2021/10/23 06:53:34;;;;;;;12.18;2.40;;;6.30;99.90;;;;;;4887910;29;20044;-85
2021/10/23 06:56:00;;;;;;;18.38;2.80;;;6.30;99.90;;;;;;4876551;29;20090;-85
2021/10/23 06:58:25;;;;;;;20.35;3.03;;;6.30;99.90;;;;;;4860895;29;20050;-86
2021/10/23 07:00:51;;;;;;;16.40;2.83;;;6.30;99.90;;;;;;4901795;29;20076;-86
2021/10/23 07:03:17;;;;;;;18.83;3.47;;;6.30;99.90;;;;;;4887838;29;20184;-87
2021/10/23 07:05:44;;;;;;;16.95;3.25;;;6.40;99.90;;;;;;4885610;29;20032;-86
2021/10/23 07:08:10;;;;;;;13.68;2.75;;;6.40;99.90;;;;;;4895587;29;20075;-86
2021/10/23 07:10:35;;;;;;;19.25;2.83;;;6.50;99.90;;;;;;4881563;29;20039;-86
2021/10/23 07:13:04;;;;;;;18.20;3.47;;;6.50;99.90;;;;;;4872125;29;20122;-87
2021/10/23 07:15:30;;;;;;;13.63;2.88;;;6.50;99.90;;;;;;4908659;29;20687;-86
2021/10/23 07:17:57;;;;;;;19.65;3.05;;;6.60;99.90;;;;;;4894574;29;20174;-85
2021/10/23 07:20:25;;;;;;;18.13;3.55;;;6.70;99.90;;;;;;4902260;29;20040;-86
2021/10/23 07:22:51;;;;;;;22.75;3.30;;;6.70;99.90;;;;;;4885562;29;20040;-85
2021/10/23 07:25:20;;;;;;;20.98;3.65;;;6.70;99.90;;;;;;4878731;29;20052;-85
2021/10/23 07:27:45;;;;;;;13.75;3.13;;;6.80;99.90;;;;;;4870882;29;20150;-85
2021/10/23 07:30:12;;;;;;;19.38;2.83;;;6.80;99.90;;;;;;4881617;29;20056;-87
2021/10/23 07:32:39;;;;;;;18.52;3.40;;;6.90;99.90;;;;;;4890962;29;20499;-86
2021/10/23 07:35:06;;;;;;;19.77;3.30;;;6.90;99.90;;;;;;4882018;29;20106;-87
2021/10/23 07:37:32;;;;;;;12.60;2.63;;;6.90;99.90;;;;;;4899448;29;20040;-86
2021/10/23 07:40:04;;;;;;;16.33;3.30;;;7.00;99.90;;;;;;4906461;29;20040;-87
2021/10/23 07:42:29;;;;;;;16.20;2.70;;;7.00;99.90;;;;;;4896588;29;20236;-86
2021/10/23 07:44:59;;;;;;;22.02;3.17;;;7.00;99.90;;;;;;4890302;29;20048;-86
2021/10/23 07:47:25;;;;;;;19.65;3.03;;;7.10;99.90;;;;;;4895519;29;20075;-85
2021/10/23 07:49:51;;;;;;;18.33;3.05;;;7.10;99.90;;;;;;4899621;29;20078;-85
2021/10/23 07:52:17;;;;;;;20.15;3.17;;;7.20;99.90;;;;;;4886064;29;20501;-86
2021/10/23 07:54:43;;;;;;;16.83;2.97;;;7.20;99.90;;;;;;4883020;29;20063;-86
2021/10/23 07:57:09;;;;;;;14.02;3.00;;;7.20;99.90;;;;;;4880582;29;20036;-86
2021/10/23 07:59:35;;;;;;;18.65;2.80;;;7.30;99.90;;;;;;4880246;29;20040;-85
2021/10/23 08:02:02;;;;;;;26.58;2.70;;;7.40;99.90;;;;;;4880703;29;20048;-87
2021/10/23 08:04:30;;;;;;;12.93;2.70;;;7.40;99.90;;;;;;4904755;29;20043;-86
2021/10/23 08:06:59;;;;;;;21.63;3.22;;;7.50;99.90;;;;;;4874674;29;20539;-86
2021/10/23 08:09:28;;;;;;;11.57;2.05;;;7.50;99.90;;;;;;4897251;29;20418;-85
2021/10/23 08:11:54;;;;;;;13.35;2.75;;;7.60;99.90;;;;;;4851107;29;20055;-85
2021/10/23 08:14:19;;;;;;;12.95;2.58;;;7.70;99.90;;;;;;4892833;29;20036;-86
2021/10/23 08:16:45;;;;;;;17.67;2.47;;;7.80;99.90;;;;;;4873108;29;20127;-86
2021/10/23 08:19:11;;;;;;;16.92;3.28;;;7.80;99.90;;;;;;4888785;29;20119;-86
2021/10/23 08:21:38;;;;;;;15.25;2.50;;;7.90;99.90;;;;;;4884430;29;20514;-86
2021/10/23 08:24:17;;;;;;;19.92;3.30;;;8.00;99.90;;;;;;5128502;27;20312;-86
2021/10/23 08:26:44;;;;;;;17.65;2.33;;;8.10;99.90;;;;;;5058360;28;20036;-86
2021/10/23 08:29:10;;;;;;;21.15;2.95;;;8.10;99.90;;;;;;5096792;28;20059;-86
2021/10/23 08:31:36;;;;;;;21.00;3.53;;;8.20;99.90;;;;;;5078911;28;20063;-87
2021/10/23 08:34:09;;;;;;;14.38;2.80;;;8.20;99.90;;;;;;5050932;28;20457;-86
2021/10/23 08:36:35;;;;;;;12.80;2.80;;;8.30;99.90;;;;;;5060434;28;20036;-87
2021/10/23 08:39:02;;;;;;;13.07;2.70;;;8.40;99.90;;;;;;5067679;28;20093;-88
2021/10/23 08:41:28;;;;;;;23.38;3.20;;;8.40;99.90;;;;;;5048396;28;20059;-87
2021/10/23 08:43:53;;;;;;;14.43;2.33;;;8.50;99.90;;;;;;5049793;28;20036;-85
2021/10/23 08:46:27;;;;;;;19.60;2.80;;;8.60;99.90;;;;;;5049780;28;20065;-87
2021/10/23 08:48:54;;;;;;;13.65;2.20;;;8.60;99.90;;;;;;5067887;28;20032;-86
2021/10/23 08:51:25;;;;;;;18.75;2.53;;;8.70;99.90;;;;;;5050103;28;20040;-87
2021/10/23 08:53:52;;;;;;;13.52;2.30;;;8.80;99.90;;;;;;5066398;28;20036;-87
2021/10/23 08:56:19;;;;;;;17.23;2.88;;;8.90;99.90;;;;;;5064635;28;20040;-86
2021/10/23 08:58:45;;;;;;;19.33;2.47;;;9.00;99.90;;;;;;5048269;28;20036;-87
2021/10/23 09:01:13;;;;;;;14.65;2.47;;;9.00;99.90;;;;;;5037461;28;20051;-85
2021/10/23 09:03:44;;;;;;;13.52;2.28;;;9.10;99.90;;;;;;5095792;28;20036;-86
2021/10/23 09:06:37;;;;;;;17.20;2.45;;;9.10;99.90;;;;;;5063141;28;20039;-88
2021/10/23 09:09:08;;;;;;;13.38;2.45;;;9.20;99.90;;;;;;5066379;28;20035;-87
2021/10/23 09:11:39;;;;;;;10.85;2.13;;;9.20;99.90;;;;;;5067946;28;20040;-87
2021/10/23 09:14:40;;;;;;;18.33;2.60;;;9.20;99.90;;;;;;5073753;28;20288;-87
2021/10/23 09:17:12;;;;;;;15.38;1.92;;;9.20;99.90;;;;;;4999795;28;20070;-87
2021/10/23 09:19:50;;;;;;;16.23;2.40;;;9.30;99.90;;;;;;5056043;28;20123;-87
2021/10/23 09:22:34;;;;;;;15.27;2.17;;;9.30;99.90;;;;;;5064318;28;20040;-87
2021/10/23 09:25:27;;;;;;;14.18;2.20;;;9.40;99.90;;;;;;5062077;28;20398;-86
2021/10/23 09:28:14;;;;;;;14.48;2.60;;;9.30;99.90;;;;;;5098223;28;20443;-87
2021/10/23 09:30:49;;;;;;;9.85;2.03;;;9.40;99.90;;;;;;5096516;28;20036;-87
2021/10/23 09:33:20;;;;;;;13.02;2.42;;;9.50;99.90;;;;;;5069177;28;20039;-85
2021/10/23 09:35:48;;;;;;;15.63;2.67;;;9.50;99.90;;;;;;5081772;28;20037;-84
2021/10/23 09:38:16;;;;;;;9.88;2.05;;;9.60;99.90;;;;;;5039210;28;20040;-85
2021/10/23 09:40:45;;;;;;;11.05;1.90;;;9.60;99.90;;;;;;5049015;28;20048;-84
2021/10/23 09:43:29;;;;;;;13.55;2.15;;;9.70;99.90;;;;;;5052953;28;20067;-84
2021/10/23 09:45:58;;;;;;;12.00;2.00;;;9.70;99.90;;;;;;5074731;28;20079;-85
2021/10/23 09:48:43;;;;;;;13.70;2.38;;;9.80;99.90;;;;;;5050521;28;20037;-85
2021/10/23 09:51:27;;;;;;;12.30;1.65;;;9.80;99.90;;;;;;5048284;28;20044;-85
2021/10/23 09:53:58;;;;;;;14.15;2.22;;;9.90;99.90;;;;;;5049611;28;20040;-84
2021/10/23 09:56:30;;;;;;;12.63;2.50;;;10.00;99.90;;;;;;5081641;28;20032;-84
2021/10/23 09:59:07;;;;;;;10.37;2.20;;;10.00;99.90;;;;;;5052343;28;20048;-85
2021/10/23 10:01:42;;;;;;;8.27;1.75;;;10.10;99.90;;;;;;5049105;28;20287;-85
2021/10/23 10:04:13;;;;;;;14.02;2.15;;;10.20;99.90;;;;;;5086497;28;20042;-86
2021/10/23 10:06:40;;;;;;;9.32;1.63;;;10.20;99.90;;;;;;5050623;28;20127;-85
2021/10/23 10:09:07;;;;;;;13.30;1.95;;;10.30;99.90;;;;;;5032258;28;20213;-85
2021/10/23 10:11:36;;;;;;;11.23;2.20;;;10.30;99.90;;;;;;5037303;28;20036;-84
2021/10/23 10:14:05;;;;;;;9.90;1.60;;;10.40;99.90;;;;;;5034415;28;20050;-86
2021/10/23 10:16:32;;;;;;;11.65;2.00;;;10.50;99.90;;;;;;5044920;28;20455;-87
2021/10/23 10:18:58;;;;;;;12.65;2.25;;;10.60;99.90;;;;;;5042465;28;20120;-86
2021/10/23 10:21:26;;;;;;;12.25;1.88;;;10.70;99.90;;;;;;5050578;28;20479;-86
2021/10/23 10:23:54;;;;;;;10.00;2.10;;;10.70;99.90;;;;;;5061111;28;20045;-86
2021/10/23 10:26:34;;;;;;;8.95;2.40;;;10.80;99.90;;;;;;5032554;28;20064;-85
2021/10/23 10:29:11;;;;;;;10.52;2.17;;;10.80;99.90;;;;;;5075913;28;20513;-86
2021/10/23 10:32:01;;;;;;;11.05;2.10;;;10.90;99.90;;;;;;5045577;28;20044;-86
2021/10/23 10:34:43;;;;;;;9.90;1.90;;;10.90;99.90;;;;;;5075676;28;20055;-86
2021/10/23 10:43:06;;;;;;;12.85;2.15;;;11.00;99.90;;;;;;5091142;27;20530;-86
2021/10/23 10:45:48;;;;;;;10.00;1.80;;;11.00;99.90;;;;;;5044320;28;20041;-86
2021/10/23 10:48:26;;;;;;;14.68;2.35;;;11.00;99.90;;;;;;5043765;28;20036;-85
2021/10/23 10:50:55;;;;;;;12.75;2.10;;;11.10;99.90;;;;;;5073527;28;20119;-86
2021/10/23 10:53:25;;;;;;;12.32;2.47;;;11.10;99.90;;;;;;5081435;28;20158;-86
2021/10/23 10:56:12;;;;;;;18.70;2.50;;;11.10;99.90;;;;;;5049043;28;20052;-87
2021/10/23 10:58:55;;;;;;;8.95;2.33;;;11.10;99.90;;;;;;5080335;28;20040;-89
2021/10/23 11:01:24;;;;;;;18.73;2.72;;;11.10;99.90;;;;;;5029630;28;20554;-86
2021/10/23 11:03:56;;;;;;;12.68;2.83;;;11.10;99.90;;;;;;5081299;28;20131;-87
2021/10/23 11:06:31;;;;;;;11.45;2.65;;;11.10;99.90;;;;;;5051083;28;20029;-87
2021/10/23 11:09:09;;;;;;;12.98;2.20;;;11.10;99.90;;;;;;5046816;28;20494;-87
2021/10/23 11:11:47;;;;;;;12.27;2.67;;;11.10;99.90;;;;;;5084585;28;20070;-87
2021/10/23 11:14:28;;;;;;;13.13;2.42;;;11.10;99.90;;;;;;5045471;28;20039;-86
2021/10/23 11:17:00;;;;;;;14.57;2.72;;;11.10;99.90;;;;;;5054983;28;20063;-86
2021/10/23 11:19:27;;;;;;;14.15;3.47;;;11.10;99.90;;;;;;5050679;28;20135;-86
2021/10/23 11:22:01;;;;;;;14.57;3.05;;;11.20;99.90;;;;;;5042048;28;20044;-85
2021/10/23 11:25:08;;;;;;;10.63;2.47;;;11.20;99.90;;;;;;5079234;28;20040;-86
2021/10/23 11:27:53;;;;;;;10.70;2.70;;;11.20;99.90;;;;;;5039253;28;20091;-87
2021/10/23 11:30:29;;;;;;;8.95;2.45;;;11.20;99.90;;;;;;5067087;28;20070;-86
2021/10/23 11:33:03;;;;;;;11.50;2.60;;;11.30;99.90;;;;;;5058758;28;20044;-85
2021/10/23 11:35:35;;;;;;;10.00;2.10;;;11.30;99.90;;;;;;5089635;28;20033;-87
2021/10/23 11:38:27;;;;;;;12.05;2.42;;;11.30;99.90;;;;;;5046154;28;20040;-86
2021/10/23 11:41:01;;;;;;;13.10;2.40;;;11.40;99.90;;;;;;5034101;28;20068;-86
2021/10/23 11:43:28;;;;;;;9.80;2.05;;;11.40;99.90;;;;;;5056046;28;20087;-86
2021/10/23 11:45:54;;;;;;;16.90;2.40;;;11.40;99.90;;;;;;5028218;28;20044;-86
2021/10/23 11:48:20;;;;;;;10.55;2.60;;;11.40;99.90;;;;;;5048628;28;20033;-86
2021/10/23 11:50:51;;;;;;;11.07;2.47;;;11.30;99.90;;;;;;5087886;28;20063;-86
2021/10/23 11:53:29;;;;;;;11.57;2.25;;;11.30;99.90;;;;;;5049627;28;20410;-84
2021/10/23 11:56:00;;;;;;;13.15;2.40;;;11.30;99.90;;;;;;5044919;28;20044;-84
2021/10/23 11:58:41;;;;;;;11.18;2.30;;;11.40;99.90;;;;;;5021230;28;20656;-83
2021/10/23 12:01:16;;;;;;;9.80;2.42;;;11.50;99.90;;;;;;5065455;28;20048;-83
2021/10/23 12:03:50;;;;;;;11.65;2.33;;;11.60;99.90;;;;;;5023538;28;20075;-82
2021/10/23 12:06:23;;;;;;;13.48;2.72;;;11.60;99.90;;;;;;5062989;28;20064;-82
2021/10/23 12:09:08;;;;;;;17.63;2.45;;;11.60;99.90;;;;;;5043133;28;20036;-83
2021/10/23 12:11:34;;;;;;;6.35;1.75;;;11.60;99.90;;;;;;5075123;28;20033;-81
2021/10/23 12:14:00;;;;;;;9.52;2.30;;;11.70;99.90;;;;;;5062465;28;20440;-85
2021/10/23 12:16:44;;;;;;;8.95;1.95;;;11.70;99.90;;;;;;5074335;28;20469;-84
2021/10/23 12:19:17;;;;;;;7.57;1.52;;;11.60;99.90;;;;;;5095710;28;20048;-84
2021/10/23 12:21:55;;;;;;;10.68;2.08;;;11.70;99.90;;;;;;5077800;28;20091;-85
2021/10/23 12:24:31;;;;;;;10.93;1.95;;;11.70;99.90;;;;;;5047952;28;20045;-87
2021/10/23 12:27:12;;;;;;;9.82;2.00;;;11.60;99.90;;;;;;5048154;28;20143;-85
2021/10/23 12:29:56;;;;;;;6.38;1.42;;;11.60;99.90;;;;;;5044080;28;20175;-86
2021/10/23 12:32:37;;;;;;;13.15;1.67;;;11.60;99.90;;;;;;5086760;28;20048;-84
2021/10/23 12:35:05;;;;;;;13.77;1.88;;;11.60;99.90;;;;;;5049708;28;20052;-85
2021/10/23 12:37:33;;;;;;;9.13;2.17;;;11.60;99.90;;;;;;5039988;28;20415;-85
2021/10/23 12:40:05;;;;;;;9.50;1.80;;;11.60;99.60;;;;;;5043701;28;20048;-86
2021/10/23 12:42:32;;;;;;;8.40;1.70;;;11.50;99.50;;;;;;5073995;28;20033;-84
2021/10/23 12:44:58;;;;;;;6.75;1.83;;;11.50;99.70;;;;;;5029891;28;20295;-85
2021/10/23 12:47:23;;;;;;;9.20;2.00;;;11.50;99.40;;;;;;5062333;28;20191;-86
2021/10/23 12:49:49;;;;;;;11.90;2.00;;;11.50;99.30;;;;;;5042935;28;20072;-85
2021/10/23 12:52:15;;;;;;;8.00;1.60;;;11.50;99.40;;;;;;5030403;28;20486;-85
2021/10/23 12:54:41;;;;;;;15.27;2.00;;;11.50;99.40;;;;;;5048610;28;20043;-85
2021/10/23 12:57:06;;;;;;;7.93;1.67;;;11.50;99.50;;;;;;5033889;28;20028;-85
2021/10/23 12:59:32;;;;;;;10.48;1.90;;;11.50;99.50;;;;;;5032026;28;20129;-84